createdAt,value
2022-12-11T00:00:30.482Z,3.30
2022-12-11T00:03:19.954Z,2.50
2022-12-11T00:05:47.597Z,2.92
2022-12-11T00:08:15.894Z,3.58
2022-12-11T00:10:50.126Z,3.30
2022-12-11T00:13:17.450Z,3.08
2022-12-11T00:15:45.002Z,2.30
2022-12-11T00:18:14.324Z,3.00
2022-12-11T00:20:42.317Z,2.53
2022-12-11T00:23:11.199Z,1.98
2022-12-11T00:25:46.722Z,2.75
2022-12-11T00:28:18.168Z,2.33
2022-12-11T00:30:46.170Z,2.35
2022-12-11T00:33:15.305Z,2.42
2022-12-11T00:35:46.453Z,2.05
2022-12-11T00:38:20.258Z,1.80
2022-12-11T00:40:49.507Z,1.85
2022-12-11T00:43:17.699Z,2.00
2022-12-11T00:45:48.121Z,2.03
2022-12-11T00:48:15.625Z,1.65
2022-12-11T00:50:43.283Z,2.10
2022-12-11T00:53:10.850Z,1.42
2022-12-11T00:55:43.359Z,1.95
2022-12-11T00:58:11.569Z,1.65
2022-12-11T01:00:40.258Z,2.00
2022-12-11T01:03:08.293Z,2.20
2022-12-11T01:05:37.183Z,2.20
2022-12-11T01:08:04.817Z,2.20
2022-12-11T01:10:35.068Z,1.98
2022-12-11T01:13:07.001Z,2.30
2022-12-11T01:15:41.891Z,2.10
2022-12-11T01:18:11.917Z,1.80
2022-12-11T01:20:41.504Z,1.60
2022-12-11T01:23:12.585Z,1.95
2022-12-11T01:25:40.850Z,2.00
2022-12-11T01:28:09.334Z,2.50
2022-12-11T01:30:37.481Z,2.40
2022-12-11T01:33:04.764Z,2.20
2022-12-11T01:35:34.091Z,2.88
2022-12-11T01:38:01.579Z,2.42
2022-12-11T01:40:29.921Z,2.47
2022-12-11T01:42:57.440Z,2.08
2022-12-11T01:45:27.397Z,3.20
2022-12-11T01:48:12.577Z,2.13
2022-12-11T01:50:45.552Z,2.08
2022-12-11T01:53:16.710Z,1.98
2022-12-11T01:55:47.593Z,1.95
2022-12-11T01:58:16.544Z,2.33
2022-12-11T02:00:44.096Z,2.05
2022-12-11T02:03:11.584Z,2.00
2022-12-11T02:05:39.491Z,2.17
2022-12-11T02:08:08.004Z,2.20
2022-12-11T02:10:57.273Z,2.00
2022-12-11T02:13:24.527Z,1.90
2022-12-11T02:16:14.201Z,1.70
2022-12-11T02:19:42.750Z,1.90
2022-12-11T02:22:18.175Z,2.00
2022-12-11T02:25:21.856Z,2.17
2022-12-11T02:27:59.018Z,1.55
2022-12-11T02:30:27.076Z,2.10
2022-12-11T02:32:59.139Z,2.40
2022-12-11T02:35:32.053Z,1.63
2022-12-11T02:38:08.779Z,2.17
2022-12-11T02:40:39.929Z,1.85
2022-12-11T02:43:13.677Z,2.22
2022-12-11T02:48:11.980Z,2.00
2022-12-11T02:50:46.366Z,1.90
2022-12-11T02:53:18.704Z,1.70
2022-12-11T02:55:47.610Z,2.00
2022-12-11T02:58:38.386Z,1.80
2022-12-11T03:01:06.044Z,2.72
2022-12-11T03:03:33.751Z,3.22
2022-12-11T03:06:01.673Z,1.55
2022-12-11T03:08:29.302Z,2.58
2022-12-11T03:10:56.586Z,1.92
2022-12-11T03:13:24.238Z,1.90
2022-12-11T03:16:03.652Z,2.13
2022-12-11T03:18:44.796Z,2.13
2022-12-11T03:21:20.432Z,2.60
2022-12-11T03:23:54.251Z,1.95
2022-12-11T03:26:24.587Z,2.40
2022-12-11T03:29:00.721Z,2.72
2022-12-11T03:31:48.504Z,2.20
2022-12-11T03:34:28.087Z,2.08
2022-12-11T03:36:58.672Z,2.58
2022-12-11T03:39:32.456Z,2.75
2022-12-11T03:42:02.598Z,2.95
2022-12-11T03:44:33.617Z,2.72
2022-12-11T03:47:03.581Z,2.90
2022-12-11T03:49:37.092Z,2.75
2022-12-11T03:52:05.568Z,3.28
2022-12-11T03:54:34.957Z,2.95
2022-12-11T03:57:05.062Z,3.28
2022-12-11T03:59:35.131Z,3.00
2022-12-11T04:02:02.459Z,3.25
2022-12-11T04:04:30.152Z,2.97
2022-12-11T04:06:58.861Z,3.15
2022-12-11T04:09:26.400Z,3.30
2022-12-11T04:11:53.641Z,3.25
2022-12-11T04:14:40.086Z,3.20
2022-12-11T04:17:07.340Z,3.58
2022-12-11T04:19:53.422Z,2.60
2022-12-11T04:22:39.055Z,2.55
2022-12-11T04:25:08.471Z,3.33
2022-12-11T04:27:50.747Z,3.13
2022-12-11T04:30:22.020Z,3.30
2022-12-11T04:32:49.850Z,3.33
2022-12-11T04:35:18.085Z,3.60
2022-12-11T04:37:45.333Z,4.05
2022-12-11T04:40:15.550Z,3.50
2022-12-11T04:42:43.419Z,3.65
2022-12-11T04:45:13.098Z,3.60
2022-12-11T04:47:41.387Z,3.67
2022-12-11T04:50:12.378Z,3.28
2022-12-11T04:52:39.616Z,3.22
2022-12-11T04:55:08.169Z,4.03
2022-12-11T04:57:35.683Z,3.78
2022-12-11T05:00:07.586Z,3.33
2022-12-11T05:02:37.766Z,3.50
2022-12-11T05:05:07.390Z,2.47
2022-12-11T05:07:34.613Z,3.17
2022-12-11T05:10:03.815Z,3.40
2022-12-11T05:12:32.783Z,4.50
2022-12-11T05:15:00.388Z,2.90
2022-12-11T05:17:27.743Z,3.28
2022-12-11T05:19:55.299Z,3.60
2022-12-11T05:22:22.636Z,2.90
2022-12-11T05:24:50.286Z,3.33
2022-12-11T05:27:17.559Z,3.40
2022-12-11T05:29:45.195Z,3.20
2022-12-11T05:32:12.355Z,3.20
2022-12-11T05:34:39.908Z,3.10
2022-12-11T05:37:07.471Z,3.60
2022-12-11T05:42:24.010Z,2.90
2022-12-11T05:44:54.714Z,3.80
2022-12-11T05:47:22.052Z,3.78
2022-12-11T05:49:52.375Z,2.92
2022-12-11T05:52:20.334Z,3.08
2022-12-11T05:54:50.526Z,4.05
2022-12-11T05:57:17.889Z,3.85
2022-12-11T05:59:46.588Z,3.53
2022-12-11T06:02:13.996Z,5.00
2022-12-11T06:04:42.073Z,3.50
2022-12-11T06:07:10.397Z,4.10
2022-12-11T06:09:37.907Z,4.20
2022-12-11T06:12:05.198Z,4.00
2022-12-11T06:14:32.724Z,4.30
2022-12-11T06:16:59.992Z,5.13
2022-12-11T06:19:29.773Z,4.38
2022-12-11T06:22:00.901Z,4.30
2022-12-11T06:24:28.638Z,4.53
2022-12-11T06:26:55.890Z,5.10
2022-12-11T06:29:23.399Z,5.03
2022-12-11T06:31:50.660Z,5.20
2022-12-11T06:34:18.203Z,5.65
2022-12-11T06:36:46.377Z,5.45
2022-12-11T06:39:13.907Z,7.35
2022-12-11T06:41:41.333Z,7.68
2022-12-11T06:44:09.486Z,5.95
2022-12-11T06:46:36.713Z,5.78
2022-12-11T06:49:04.191Z,7.93
2022-12-11T06:51:32.881Z,7.05
2022-12-11T06:54:00.350Z,6.82
2022-12-11T06:56:27.569Z,7.13
2022-12-11T06:58:57.163Z,6.30
2022-12-11T07:01:27.779Z,6.90
2022-12-11T07:03:57.565Z,7.55
2022-12-11T07:06:26.197Z,7.90
2022-12-11T07:08:54.587Z,9.20
2022-12-11T07:11:22.063Z,8.02
2022-12-11T07:13:49.869Z,7.55
2022-12-11T07:16:18.109Z,7.18
2022-12-11T07:18:51.339Z,8.43
2022-12-11T07:21:20.525Z,11.75
2022-12-11T07:23:49.116Z,8.95
2022-12-11T07:26:20.743Z,8.48
2022-12-11T07:28:49.413Z,8.82
2022-12-11T07:31:23.274Z,8.82
2022-12-11T07:34:02.794Z,10.98
2022-12-11T07:36:30.474Z,10.52
2022-12-11T07:38:59.170Z,10.93
2022-12-11T07:41:31.830Z,11.20
2022-12-11T07:44:00.520Z,11.60
2022-12-11T07:46:29.655Z,9.63
2022-12-11T07:48:57.227Z,11.25
2022-12-11T07:51:28.141Z,10.48
2022-12-11T07:53:59.782Z,16.75
2022-12-11T07:56:28.735Z,11.05
2022-12-11T07:58:59.966Z,17.83
2022-12-11T08:01:29.542Z,16.17
2022-12-11T08:03:57.857Z,12.45
2022-12-11T08:06:28.067Z,12.00
2022-12-11T08:08:58.747Z,12.88
2022-12-11T08:11:27.143Z,12.80
2022-12-11T08:13:55.437Z,12.13
2022-12-11T08:16:23.208Z,14.73
2022-12-11T08:18:53.865Z,11.55
2022-12-11T08:21:23.774Z,12.25
2022-12-11T08:23:52.880Z,11.38
2022-12-11T08:26:26.372Z,12.93
2022-12-11T08:29:00.832Z,12.50
2022-12-11T08:31:32.115Z,13.35
2022-12-11T08:33:59.679Z,12.40
2022-12-11T08:36:27.037Z,13.07
2022-12-11T08:38:55.882Z,13.73
2022-12-11T08:41:26.934Z,12.95
2022-12-11T08:43:55.769Z,13.80
2022-12-11T08:46:25.206Z,14.73
2022-12-11T08:48:53.413Z,15.50
2022-12-11T08:51:24.309Z,15.63
2022-12-11T08:53:57.017Z,18.45
2022-12-11T08:56:25.473Z,13.07
2022-12-11T08:58:53.526Z,20.67
2022-12-11T09:01:26.517Z,14.50
2022-12-11T09:04:12.821Z,13.50
2022-12-11T09:06:40.069Z,13.48
2022-12-11T09:09:07.632Z,17.27
2022-12-11T09:11:37.672Z,16.83
2022-12-11T09:14:07.843Z,14.20
2022-12-11T09:16:40.449Z,14.93
2022-12-11T09:19:11.785Z,16.65
2022-12-11T09:21:39.069Z,16.35
2022-12-11T09:24:07.020Z,14.00
2022-12-11T09:26:34.319Z,15.90
2022-12-11T09:29:04.098Z,15.80
2022-12-11T09:31:35.146Z,14.90
2022-12-11T09:34:08.090Z,16.10
2022-12-11T09:36:35.622Z,16.55
2022-12-11T09:39:05.894Z,16.33
2022-12-11T09:41:59.922Z,15.13
2022-12-11T09:44:38.324Z,14.30
2022-12-11T09:47:36.321Z,14.02
2022-12-11T09:50:11.229Z,17.98
2022-12-11T09:53:06.070Z,15.43
2022-12-11T09:55:47.197Z,15.95
2022-12-11T09:58:33.038Z,16.73
2022-12-11T10:01:10.183Z,16.35
2022-12-11T10:04:07.992Z,15.48
2022-12-11T10:06:47.259Z,16.48
2022-12-11T10:09:27.929Z,13.80
2022-12-11T10:12:04.643Z,15.98
2022-12-11T10:14:35.114Z,12.73
2022-12-11T10:17:20.419Z,11.65
2022-12-11T10:22:27.576Z,12.07
2022-12-11T10:25:11.265Z,13.35
2022-12-11T10:27:41.327Z,12.80
2022-12-11T10:30:16.835Z,12.23
2022-12-11T10:32:50.630Z,12.75
2022-12-11T10:35:51.235Z,12.90
2022-12-11T10:38:28.758Z,13.98
2022-12-11T10:41:05.113Z,13.55
2022-12-11T10:43:42.502Z,12.73
2022-12-11T10:46:19.916Z,12.10
2022-12-11T10:48:56.902Z,11.10
2022-12-11T10:51:39.255Z,11.93
2022-12-11T10:54:17.518Z,12.38
2022-12-11T10:56:48.646Z,12.25
2022-12-11T10:59:38.375Z,13.85
2022-12-11T11:02:16.322Z,13.25
2022-12-11T11:04:45.397Z,12.35
2022-12-11T11:07:22.049Z,14.90
2022-12-11T11:09:50.479Z,12.55
2022-12-11T11:12:24.390Z,11.88
2022-12-11T11:15:27.817Z,13.85
2022-12-11T11:17:57.664Z,12.95
2022-12-11T11:20:29.341Z,12.90
2022-12-11T11:23:00.490Z,15.88
2022-12-11T11:25:31.630Z,14.10
2022-12-11T11:28:00.803Z,12.25
2022-12-11T11:30:41.710Z,12.40
2022-12-11T11:33:21.128Z,14.15
2022-12-11T11:35:52.972Z,13.90
2022-12-11T11:38:49.879Z,16.23
2022-12-11T11:41:35.703Z,17.42
2022-12-11T11:44:07.219Z,17.27
2022-12-11T11:46:48.977Z,17.48
2022-12-11T11:49:28.291Z,16.05
2022-12-11T11:52:40.158Z,18.55
2022-12-11T11:55:22.485Z,18.63
2022-12-11T11:58:23.203Z,17.88
2022-12-11T12:00:54.764Z,17.67
2022-12-11T12:03:25.891Z,18.75
2022-12-11T12:06:09.783Z,22.73
2022-12-11T12:09:19.199Z,17.38
2022-12-11T12:12:20.932Z,19.95
2022-12-11T12:15:09.671Z,17.75
2022-12-11T12:17:56.414Z,24.92
2022-12-11T12:20:39.450Z,22.88
2022-12-11T12:23:15.053Z,25.17
2022-12-11T12:26:11.261Z,21.80
2022-12-11T12:29:01.750Z,22.25
2022-12-11T12:32:06.863Z,26.70
2022-12-11T12:35:08.593Z,23.48
2022-12-11T12:38:02.520Z,23.55
2022-12-11T12:40:39.652Z,20.55
2022-12-11T12:43:25.760Z,19.80
2022-12-11T12:46:20.185Z,20.58
2022-12-11T12:48:49.743Z,22.35
2022-12-11T12:51:18.436Z,21.20
2022-12-11T12:54:00.790Z,22.70
2022-12-11T12:56:32.843Z,20.73
2022-12-11T12:59:00.358Z,18.85
2022-12-11T13:01:30.125Z,20.65
2022-12-11T13:04:16.781Z,22.92
2022-12-11T13:07:00.651Z,22.65
2022-12-11T13:09:28.706Z,26.58
2022-12-11T13:15:01.111Z,22.20
2022-12-11T13:17:39.203Z,24.15
2022-12-11T13:20:18.223Z,21.63
2022-12-11T13:23:02.040Z,21.75
2022-12-11T13:28:23.266Z,23.38
2022-12-11T13:31:16.076Z,19.63
2022-12-11T13:33:54.474Z,22.70
2022-12-11T13:36:24.804Z,23.35
2022-12-11T13:38:58.059Z,21.98
2022-12-11T13:41:26.778Z,21.77
2022-12-11T13:43:55.771Z,25.02
2022-12-11T13:46:29.477Z,24.73
2022-12-11T13:49:02.686Z,25.42
2022-12-11T13:51:33.515Z,27.00
2022-12-11T13:54:18.715Z,26.30
2022-12-11T13:57:15.635Z,20.73
2022-12-11T13:59:53.530Z,25.10
2022-12-11T14:02:32.750Z,25.73
2022-12-11T14:05:08.763Z,23.75
2022-12-11T14:07:44.755Z,22.70
2022-12-11T14:10:15.040Z,23.33
2022-12-11T14:12:55.467Z,23.67
2022-12-11T14:15:23.830Z,21.33
2022-12-11T14:17:52.306Z,24.13
2022-12-11T14:20:23.331Z,23.23
2022-12-11T14:22:51.442Z,25.08
2022-12-11T14:25:27.320Z,25.20
2022-12-11T14:27:56.844Z,23.10
2022-12-11T14:30:30.078Z,24.98
2022-12-11T14:33:01.531Z,24.75
2022-12-11T14:35:40.007Z,25.35
2022-12-11T14:38:24.136Z,24.15
2022-12-11T14:40:58.609Z,24.08
2022-12-11T14:43:32.376Z,28.27
2022-12-11T14:46:06.002Z,28.35
2022-12-11T14:48:45.718Z,26.42
2022-12-11T14:51:17.231Z,23.38
2022-12-11T14:53:49.192Z,23.52
2022-12-11T14:56:27.832Z,24.88
2022-12-11T14:59:03.097Z,21.33
2022-12-11T15:01:33.014Z,26.38
2022-12-11T15:04:27.891Z,24.42
2022-12-11T15:06:55.913Z,24.58
2022-12-11T15:09:37.931Z,26.17
2022-12-11T15:12:16.709Z,25.27
2022-12-11T15:14:56.291Z,26.60
2022-12-11T15:17:25.691Z,25.83
2022-12-11T15:20:04.967Z,26.10
2022-12-11T15:22:33.250Z,23.77
2022-12-11T15:25:01.455Z,24.88
2022-12-11T15:27:31.766Z,26.27
2022-12-11T15:30:01.570Z,26.17
2022-12-11T15:32:30.565Z,26.08
2022-12-11T15:35:01.117Z,27.30
2022-12-11T15:37:31.680Z,24.73
2022-12-11T15:40:01.098Z,36.28
2022-12-11T15:42:40.982Z,23.85
2022-12-11T15:45:16.511Z,24.90
2022-12-11T15:47:45.339Z,22.80
2022-12-11T15:50:17.487Z,22.23
2022-12-11T15:52:45.500Z,21.90
2022-12-11T15:55:34.967Z,24.02
2022-12-11T15:58:06.176Z,25.70
2022-12-11T16:00:34.534Z,23.85
2022-12-11T16:03:02.042Z,27.63
2022-12-11T16:05:31.476Z,27.45
2022-12-11T16:08:01.915Z,22.17
2022-12-11T16:10:29.735Z,21.33
2022-12-11T16:12:59.767Z,24.35
2022-12-11T16:15:29.624Z,25.38
2022-12-11T16:18:04.864Z,24.90
2022-12-11T16:20:34.336Z,25.83
2022-12-11T16:23:20.672Z,27.45
2022-12-11T16:25:48.408Z,27.08
2022-12-11T16:28:18.147Z,39.78
2022-12-11T16:30:46.019Z,125.10
2022-12-11T16:33:15.234Z,157.82
2022-12-11T16:35:43.096Z,26.67
2022-12-11T16:38:11.079Z,74.35
2022-12-11T16:40:39.358Z,219.57
2022-12-11T16:43:25.291Z,39.17
2022-12-11T16:45:56.220Z,160.88
2022-12-11T16:48:23.567Z,198.93
2022-12-11T16:50:56.067Z,187.32
2022-12-11T16:53:23.725Z,48.47
2022-12-11T16:55:51.799Z,20.95
2022-12-11T16:58:20.315Z,21.85
2022-12-11T17:00:48.795Z,39.38
2022-12-11T17:03:16.587Z,36.63
2022-12-11T17:05:44.348Z,28.67
2022-12-11T17:08:12.942Z,26.58
2022-12-11T17:10:41.833Z,23.38
2022-12-11T17:13:09.104Z,23.67
2022-12-11T17:15:41.482Z,26.33
2022-12-11T17:18:09.352Z,25.88
2022-12-11T17:20:44.743Z,25.67
2022-12-11T17:23:13.513Z,25.38
2022-12-11T17:25:45.736Z,23.65
2022-12-11T17:28:13.911Z,26.60
2022-12-11T17:30:43.531Z,24.60
2022-12-11T17:33:12.034Z,25.80
2022-12-11T17:35:39.774Z,29.63
2022-12-11T17:38:07.332Z,25.20
2022-12-11T17:40:35.256Z,24.75
2022-12-11T17:43:31.446Z,22.45
2022-12-11T17:45:59.194Z,23.92
2022-12-11T17:48:26.864Z,25.30
2022-12-11T17:50:54.751Z,23.77
2022-12-11T17:53:24.424Z,23.90
2022-12-11T17:55:52.297Z,23.73
2022-12-11T17:58:22.341Z,26.65
2022-12-11T18:00:54.390Z,26.77
2022-12-11T18:03:23.534Z,24.08
2022-12-11T18:05:56.550Z,25.38
2022-12-11T18:08:27.348Z,26.00
2022-12-11T18:10:56.590Z,28.77
2022-12-11T18:13:24.632Z,27.45
2022-12-11T18:16:06.026Z,32.38
2022-12-11T18:18:33.913Z,25.20
2022-12-11T18:21:02.272Z,25.88
2022-12-11T18:23:30.022Z,26.25
2022-12-11T18:25:57.597Z,25.40
2022-12-11T18:28:24.860Z,22.95
2022-12-11T18:30:54.102Z,21.70
2022-12-11T18:33:23.254Z,21.30
2022-12-11T18:35:51.838Z,23.08
2022-12-11T18:38:19.180Z,24.65
2022-12-11T18:40:48.844Z,24.30
2022-12-11T18:43:18.293Z,23.23
2022-12-11T18:46:01.008Z,29.88
2022-12-11T18:48:28.716Z,21.10
2022-12-11T18:51:25.510Z,26.27
2022-12-11T18:54:02.703Z,25.50
2022-12-11T18:56:30.770Z,30.77
2022-12-11T18:58:59.937Z,27.90
2022-12-11T19:01:30.089Z,38.38
2022-12-11T19:04:07.755Z,34.42
2022-12-11T19:07:07.453Z,37.30
2022-12-11T19:09:38.203Z,24.52
2022-12-11T19:12:08.136Z,24.02
2022-12-11T19:14:45.753Z,26.70
2022-12-11T19:17:15.024Z,23.40
2022-12-11T19:19:47.023Z,21.30
2022-12-11T19:22:16.769Z,21.25
2022-12-11T19:24:45.631Z,20.67
2022-12-11T19:27:13.820Z,22.58
2022-12-11T19:29:41.483Z,20.25
2022-12-11T19:32:09.126Z,22.17
2022-12-11T19:34:38.664Z,22.25
2022-12-11T19:37:08.460Z,22.67
2022-12-11T19:39:39.636Z,22.48
2022-12-11T19:42:07.432Z,22.95
2022-12-11T19:44:36.651Z,20.63
2022-12-11T19:47:06.369Z,20.45
2022-12-11T19:49:34.811Z,19.77
2022-12-11T19:52:08.035Z,21.05
2022-12-11T19:54:36.110Z,20.75
2022-12-11T19:57:04.285Z,20.15
2022-12-11T19:59:31.801Z,20.63
2022-12-11T20:01:59.813Z,19.27
2022-12-11T20:04:27.429Z,20.05
2022-12-11T20:06:55.204Z,20.65
2022-12-11T20:09:24.468Z,20.25
2022-12-11T20:11:52.235Z,19.85
2022-12-11T20:14:27.682Z,19.85
2022-12-11T20:17:13.798Z,26.80
2022-12-11T20:19:43.539Z,21.55
2022-12-11T20:22:12.329Z,19.45
2022-12-11T20:24:45.756Z,20.85
2022-12-11T20:27:13.534Z,22.40
2022-12-11T20:29:49.724Z,23.17
2022-12-11T20:32:17.763Z,21.67
2022-12-11T20:34:47.188Z,21.42
2022-12-11T20:37:14.885Z,21.60
2022-12-11T20:40:14.554Z,23.00
2022-12-11T20:42:42.595Z,21.45
2022-12-11T20:45:13.217Z,22.65
2022-12-11T20:47:40.925Z,24.05
2022-12-11T20:50:11.177Z,20.92
2022-12-11T20:52:39.330Z,32.53
2022-12-11T20:55:10.515Z,26.48
2022-12-11T20:57:45.055Z,21.33
2022-12-11T21:00:18.103Z,21.02
2022-12-11T21:02:51.167Z,25.33
2022-12-11T21:05:18.599Z,21.17
2022-12-11T21:07:54.166Z,19.15
2022-12-11T21:10:23.159Z,20.67
2022-12-11T21:12:51.825Z,21.23
2022-12-11T21:15:19.358Z,22.75
2022-12-11T21:17:47.492Z,21.20
2022-12-11T21:20:14.962Z,18.52
2022-12-11T21:22:42.954Z,20.95
2022-12-11T21:25:11.185Z,19.95
2022-12-11T21:27:40.011Z,21.13
2022-12-11T21:30:07.648Z,22.35
2022-12-11T21:32:35.583Z,20.63
2022-12-11T21:35:03.290Z,19.10
2022-12-11T21:37:31.094Z,21.83
2022-12-11T21:39:58.600Z,20.13
2022-12-11T21:42:27.819Z,20.95
2022-12-11T21:47:42.809Z,21.42
2022-12-11T21:50:11.551Z,25.50
2022-12-11T21:52:41.057Z,19.95
2022-12-11T21:55:08.519Z,20.83
2022-12-11T21:57:36.017Z,17.67
2022-12-11T22:00:05.840Z,18.35
2022-12-11T22:02:41.194Z,17.60
2022-12-11T22:05:09.469Z,17.52
2022-12-11T22:07:37.222Z,17.30
2022-12-11T22:10:05.988Z,15.75
2022-12-11T22:12:36.162Z,17.30
2022-12-11T22:15:04.938Z,18.15
2022-12-11T22:17:33.138Z,18.20
2022-12-11T22:20:01.669Z,17.90
2022-12-11T22:25:07.109Z,16.67
2022-12-11T22:27:35.133Z,18.17
2022-12-11T22:30:02.744Z,18.15
2022-12-11T22:32:31.404Z,19.48
2022-12-11T22:34:58.716Z,18.77
2022-12-11T22:37:26.922Z,20.23
2022-12-11T22:39:54.123Z,20.52
2022-12-11T22:42:21.956Z,19.35
2022-12-11T22:44:49.537Z,19.50
2022-12-11T22:47:17.119Z,19.02
2022-12-11T22:49:44.306Z,19.63
2022-12-11T22:52:12.964Z,19.98
2022-12-11T22:54:42.170Z,19.80
2022-12-11T22:57:09.897Z,19.85
2022-12-11T22:59:37.191Z,19.42
2022-12-11T23:02:04.801Z,20.13
2022-12-11T23:04:33.218Z,18.30
2022-12-11T23:07:00.787Z,19.25
2022-12-11T23:09:28.156Z,19.02
2022-12-11T23:11:55.984Z,18.42
2022-12-11T23:14:26.120Z,19.42
2022-12-11T23:16:54.547Z,19.15
2022-12-11T23:19:25.441Z,17.98
2022-12-11T23:21:53.833Z,18.25
2022-12-11T23:24:21.255Z,20.30
2022-12-11T23:26:48.778Z,17.65
2022-12-11T23:29:15.990Z,18.63
2022-12-11T23:31:43.506Z,17.83
2022-12-11T23:34:10.798Z,20.98
2022-12-11T23:36:39.276Z,19.10
2022-12-11T23:39:06.608Z,19.75
2022-12-11T23:41:34.154Z,19.98
2022-12-11T23:44:01.596Z,20.10
2022-12-11T23:46:32.643Z,20.00
2022-12-11T23:49:00.101Z,18.77
2022-12-11T23:51:27.820Z,23.70
2022-12-11T23:54:00.490Z,19.88
2022-12-11T23:56:29.466Z,20.40
2022-12-11T23:58:57.772Z,21.48
